createdAt,value
2022-08-26T00:00:25.635Z,23.34
2022-08-26T00:01:29.844Z,23.29
2022-08-26T00:02:25.687Z,23.25
2022-08-26T00:03:25.593Z,23.23
2022-08-26T00:04:26.063Z,23.23
2022-08-26T00:05:25.574Z,23.25
2022-08-26T00:06:25.567Z,23.25
2022-08-26T00:07:25.556Z,23.26
2022-08-26T00:08:25.546Z,23.23
2022-08-26T00:09:25.559Z,23.26
2022-08-26T00:10:25.856Z,23.28
2022-08-26T00:11:26.272Z,23.26
2022-08-26T00:12:27.887Z,23.23
2022-08-26T00:13:26.488Z,23.21
2022-08-26T00:14:29.664Z,23.18
2022-08-26T00:15:26.468Z,23.21
2022-08-26T00:16:25.506Z,23.21
2022-08-26T00:17:25.449Z,23.21
2022-08-26T00:18:25.448Z,23.22
2022-08-26T00:19:25.434Z,23.23
2022-08-26T00:20:25.460Z,23.23
2022-08-26T00:21:25.425Z,23.22
2022-08-26T00:22:25.402Z,23.21
2022-08-26T00:23:25.402Z,23.21
2022-08-26T00:24:25.427Z,23.21
2022-08-26T00:25:25.392Z,23.21
2022-08-26T00:26:25.363Z,23.22
2022-08-26T00:27:25.353Z,23.22
2022-08-26T00:28:25.344Z,23.22
2022-08-26T00:29:25.338Z,23.22
2022-08-26T00:30:26.672Z,23.25
2022-08-26T00:31:25.377Z,23.25
2022-08-26T00:32:25.305Z,23.23
2022-08-26T00:33:25.300Z,23.23
2022-08-26T00:34:25.317Z,23.22
2022-08-26T00:35:25.286Z,23.17
2022-08-26T00:36:25.258Z,23.15
2022-08-26T00:37:25.257Z,23.13
2022-08-26T00:38:25.242Z,23.11
2022-08-26T00:39:25.237Z,23.11
2022-08-26T00:40:25.393Z,23.11
2022-08-26T00:41:25.219Z,23.10
2022-08-26T00:42:25.202Z,23.11
2022-08-26T00:43:25.200Z,23.11
2022-08-26T00:44:25.180Z,23.10
2022-08-26T00:45:25.274Z,23.07
2022-08-26T00:46:25.166Z,23.04
2022-08-26T00:47:25.165Z,23.01
2022-08-26T00:48:25.141Z,22.98
2022-08-26T00:49:25.140Z,22.98
2022-08-26T00:50:25.151Z,22.98
2022-08-26T00:51:25.123Z,22.96
2022-08-26T00:52:25.105Z,22.95
2022-08-26T00:53:27.804Z,22.92
2022-08-26T00:54:27.033Z,22.91
2022-08-26T00:55:25.105Z,22.89
2022-08-26T00:56:26.067Z,22.88
2022-08-26T00:57:25.057Z,22.88
2022-08-26T00:58:25.049Z,22.88
2022-08-26T00:59:25.037Z,22.89
2022-08-26T01:00:25.048Z,22.89
2022-08-26T01:01:25.073Z,22.89
2022-08-26T01:02:25.051Z,22.89
2022-08-26T01:03:24.998Z,22.88
2022-08-26T01:04:26.122Z,22.86
2022-08-26T01:05:25.005Z,22.81
2022-08-26T01:06:24.967Z,22.74
2022-08-26T01:07:24.961Z,22.71
2022-08-26T01:08:24.948Z,22.66
2022-08-26T01:09:24.942Z,22.61
2022-08-26T01:10:24.952Z,22.59
2022-08-26T01:11:24.930Z,22.58
2022-08-26T01:12:24.903Z,22.59
2022-08-26T01:13:24.902Z,22.56
2022-08-26T01:14:24.884Z,22.58
2022-08-26T01:15:24.913Z,22.58
2022-08-26T01:16:24.916Z,22.56
2022-08-26T01:17:24.875Z,22.59
2022-08-26T01:18:24.852Z,22.59
2022-08-26T01:19:24.843Z,22.55
2022-08-26T01:20:24.865Z,22.52
2022-08-26T01:21:24.830Z,22.51
2022-08-26T01:22:28.297Z,22.52
2022-08-26T01:23:24.807Z,22.52
2022-08-26T01:24:24.787Z,22.53
2022-08-26T01:25:24.806Z,22.52
2022-08-26T01:26:24.769Z,22.51
2022-08-26T01:27:24.779Z,22.49
2022-08-26T01:28:24.749Z,22.48
2022-08-26T01:29:24.745Z,22.44
2022-08-26T01:30:24.762Z,22.41
2022-08-26T01:31:24.782Z,22.37
2022-08-26T01:32:24.712Z,22.33
2022-08-26T01:33:24.700Z,22.33
2022-08-26T01:34:24.681Z,22.31
2022-08-26T01:35:24.711Z,22.28
2022-08-26T01:36:24.674Z,22.27
2022-08-26T01:37:24.673Z,22.25
2022-08-26T01:38:24.653Z,22.28
2022-08-26T01:39:24.642Z,22.30
2022-08-26T01:40:24.696Z,22.31
2022-08-26T01:41:27.513Z,22.33
2022-08-26T01:42:24.614Z,22.31
2022-08-26T01:43:24.595Z,22.33
2022-08-26T01:44:24.585Z,22.31
2022-08-26T01:45:24.632Z,22.31
2022-08-26T01:46:24.566Z,22.28
2022-08-26T01:47:24.557Z,22.30
2022-08-26T01:48:24.544Z,22.27
2022-08-26T01:49:24.537Z,22.27
2022-08-26T01:50:27.856Z,22.23
2022-08-26T01:51:25.526Z,22.23
2022-08-26T01:52:24.506Z,22.19
2022-08-26T01:53:24.498Z,22.16
2022-08-26T01:54:24.480Z,22.18
2022-08-26T01:55:33.409Z,22.19
2022-08-26T01:56:25.460Z,22.16
2022-08-26T01:57:25.452Z,22.16
2022-08-26T01:58:24.443Z,22.18
2022-08-26T01:59:24.432Z,22.16
2022-08-26T02:00:24.460Z,22.18
2022-08-26T02:01:24.451Z,22.15
2022-08-26T02:02:24.528Z,22.13
2022-08-26T02:03:24.445Z,22.12
2022-08-26T02:04:24.488Z,22.07
2022-08-26T02:05:24.395Z,22.01
2022-08-26T02:06:24.356Z,22.00
2022-08-26T02:07:24.367Z,21.96
2022-08-26T02:08:25.006Z,21.97
2022-08-26T02:09:24.333Z,21.96
2022-08-26T02:10:24.344Z,21.96
2022-08-26T02:11:24.320Z,21.96
2022-08-26T02:12:24.306Z,21.94
2022-08-26T02:13:24.328Z,21.96
2022-08-26T02:14:24.279Z,21.96
2022-08-26T02:15:24.296Z,21.97
2022-08-26T02:16:24.293Z,21.97
2022-08-26T02:17:24.249Z,21.96
2022-08-26T02:18:24.240Z,21.97
2022-08-26T02:19:24.231Z,21.97
2022-08-26T02:20:26.437Z,21.97
2022-08-26T02:21:24.890Z,21.97
2022-08-26T02:22:24.501Z,21.98
2022-08-26T02:23:24.434Z,21.98
2022-08-26T02:24:24.172Z,21.97
2022-08-26T02:25:24.202Z,21.97
2022-08-26T02:26:24.152Z,21.96
2022-08-26T02:27:24.152Z,21.96
2022-08-26T02:28:26.659Z,21.98
2022-08-26T02:29:24.131Z,22.00
2022-08-26T02:30:24.137Z,22.00
2022-08-26T02:31:24.193Z,22.00
2022-08-26T02:32:24.094Z,22.01
2022-08-26T02:33:24.096Z,22.01
2022-08-26T02:34:24.066Z,21.98
2022-08-26T02:35:24.087Z,21.94
2022-08-26T02:36:24.056Z,21.94
2022-08-26T02:37:24.046Z,21.93
2022-08-26T02:38:24.028Z,21.93
2022-08-26T02:39:24.030Z,21.88
2022-08-26T02:40:24.100Z,21.88
2022-08-26T02:41:24.008Z,21.88
2022-08-26T02:42:23.989Z,21.85
2022-08-26T02:43:31.719Z,21.84
2022-08-26T02:44:24.969Z,21.82
2022-08-26T02:45:23.994Z,21.81
2022-08-26T02:46:29.986Z,21.80
2022-08-26T02:47:24.987Z,21.80
2022-08-26T02:48:23.933Z,21.78
2022-08-26T02:49:23.922Z,21.78
2022-08-26T02:50:23.934Z,21.78
2022-08-26T02:51:23.903Z,21.78
2022-08-26T02:52:23.886Z,21.78
2022-08-26T02:53:25.440Z,21.77
2022-08-26T02:54:23.864Z,21.75
2022-08-26T02:55:24.725Z,21.75
2022-08-26T02:56:23.845Z,21.74
2022-08-26T02:57:23.844Z,21.69
2022-08-26T02:58:23.835Z,21.67
2022-08-26T02:59:24.375Z,21.67
2022-08-26T03:00:23.912Z,21.67
2022-08-26T03:01:23.886Z,21.69
2022-08-26T03:02:23.850Z,21.71
2022-08-26T03:03:23.899Z,21.74
2022-08-26T03:04:23.773Z,21.74
2022-08-26T03:05:23.997Z,21.75
2022-08-26T03:06:23.740Z,21.74
2022-08-26T03:07:23.740Z,21.73
2022-08-26T03:08:23.739Z,21.71
2022-08-26T03:09:23.731Z,21.71
2022-08-26T03:10:23.722Z,21.67
2022-08-26T03:11:23.727Z,21.67
2022-08-26T03:12:23.681Z,21.66
2022-08-26T03:13:23.686Z,21.65
2022-08-26T03:14:23.665Z,21.66
2022-08-26T03:15:23.682Z,21.66
2022-08-26T03:16:23.759Z,21.66
2022-08-26T03:17:23.648Z,21.66
2022-08-26T03:18:23.623Z,21.63
2022-08-26T03:19:23.614Z,21.63
2022-08-26T03:20:23.625Z,21.63
2022-08-26T03:21:23.596Z,21.60
2022-08-26T03:22:23.583Z,21.62
2022-08-26T03:23:23.576Z,21.60
2022-08-26T03:24:24.559Z,21.58
2022-08-26T03:25:23.585Z,21.55
2022-08-26T03:26:23.546Z,21.50
2022-08-26T03:27:23.552Z,21.47
2022-08-26T03:28:23.518Z,21.47
2022-08-26T03:29:23.518Z,21.47
2022-08-26T03:30:23.534Z,21.47
2022-08-26T03:31:24.600Z,21.48
2022-08-26T03:32:23.480Z,21.45
2022-08-26T03:33:23.479Z,21.40
2022-08-26T03:34:23.460Z,21.32
2022-08-26T03:35:23.480Z,21.26
2022-08-26T03:36:23.439Z,21.19
2022-08-26T03:37:23.441Z,21.14
2022-08-26T03:38:23.424Z,21.14
2022-08-26T03:39:23.411Z,21.16
2022-08-26T03:40:23.502Z,21.18
2022-08-26T03:41:23.395Z,21.19
2022-08-26T03:42:23.373Z,21.22
2022-08-26T03:43:23.375Z,21.22
2022-08-26T03:44:23.356Z,21.23
2022-08-26T03:45:23.379Z,21.25
2022-08-26T03:46:23.370Z,21.23
2022-08-26T03:47:23.339Z,21.22
2022-08-26T03:48:23.316Z,21.20
2022-08-26T03:49:23.317Z,21.20
2022-08-26T03:50:24.362Z,21.20
2022-08-26T03:51:23.307Z,21.22
2022-08-26T03:52:23.278Z,21.23
2022-08-26T03:53:23.290Z,21.23
2022-08-26T03:54:23.258Z,21.25
2022-08-26T03:55:23.641Z,21.25
2022-08-26T03:56:23.239Z,21.23
2022-08-26T03:57:23.230Z,21.23
2022-08-26T03:58:23.219Z,21.22
2022-08-26T03:59:23.162Z,21.22
2022-08-26T04:00:23.223Z,21.22
2022-08-26T04:01:23.218Z,21.19
2022-08-26T04:02:23.220Z,21.18
2022-08-26T04:03:23.223Z,21.16
2022-08-26T04:04:24.545Z,21.13
2022-08-26T04:05:23.138Z,21.13
2022-08-26T04:06:23.133Z,21.08
2022-08-26T04:07:23.124Z,21.05
2022-08-26T04:08:23.074Z,21.03
2022-08-26T04:09:23.064Z,21.00
2022-08-26T04:10:23.065Z,20.98
2022-08-26T04:11:24.034Z,20.97
2022-08-26T04:12:23.036Z,20.97
2022-08-26T04:13:23.017Z,20.98
2022-08-26T04:14:22.997Z,21.01
2022-08-26T04:15:23.017Z,21.01
2022-08-26T04:16:23.017Z,21.03
2022-08-26T04:17:24.996Z,21.01
2022-08-26T04:18:22.963Z,21.04
2022-08-26T04:19:22.957Z,21.04
2022-08-26T04:20:22.992Z,21.04
2022-08-26T04:21:22.953Z,21.03
2022-08-26T04:22:24.899Z,21.04
2022-08-26T04:23:22.909Z,21.04
2022-08-26T04:24:22.890Z,21.01
2022-08-26T04:25:24.218Z,21.03
2022-08-26T04:26:22.887Z,21.04
2022-08-26T04:27:22.871Z,21.00
2022-08-26T04:28:22.866Z,20.95
2022-08-26T04:29:22.853Z,20.93
2022-08-26T04:30:22.872Z,20.93
2022-08-26T04:31:22.862Z,20.89
2022-08-26T04:32:22.814Z,20.86
2022-08-26T04:33:33.078Z,20.82
2022-08-26T04:34:23.795Z,20.80
2022-08-26T04:35:25.626Z,20.80
2022-08-26T04:36:22.777Z,20.80
2022-08-26T04:37:22.769Z,20.82
2022-08-26T04:38:22.757Z,20.83
2022-08-26T04:39:22.746Z,20.83
2022-08-26T04:40:22.814Z,20.83
2022-08-26T04:41:22.729Z,20.80
2022-08-26T04:42:26.084Z,20.77
2022-08-26T04:43:22.709Z,20.74
2022-08-26T04:44:22.698Z,20.74
2022-08-26T04:45:23.024Z,20.74
2022-08-26T04:46:22.748Z,20.73
2022-08-26T04:47:22.660Z,20.73
2022-08-26T04:48:22.658Z,20.74
2022-08-26T04:49:22.641Z,20.74
2022-08-26T04:50:22.639Z,20.75
2022-08-26T04:51:22.649Z,20.75
2022-08-26T04:52:22.618Z,20.75
2022-08-26T04:53:22.601Z,20.75
2022-08-26T04:54:22.593Z,20.77
2022-08-26T04:55:25.327Z,20.75
2022-08-26T04:56:23.603Z,20.75
2022-08-26T04:57:22.564Z,20.75
2022-08-26T04:58:22.562Z,20.75
2022-08-26T04:59:22.544Z,20.74
2022-08-26T05:00:22.535Z,20.77
2022-08-26T05:01:22.571Z,20.77
2022-08-26T05:02:22.516Z,20.79
2022-08-26T05:03:22.517Z,20.80
2022-08-26T05:04:22.541Z,20.80
2022-08-26T05:05:22.477Z,20.82
2022-08-26T05:06:22.499Z,20.85
2022-08-26T05:07:22.466Z,20.85
2022-08-26T05:08:22.449Z,20.86
2022-08-26T05:09:22.446Z,20.86
2022-08-26T05:10:22.435Z,20.85
2022-08-26T05:11:22.449Z,20.82
2022-08-26T05:12:22.410Z,20.80
2022-08-26T05:13:22.400Z,20.80
2022-08-26T05:14:22.403Z,20.79
2022-08-26T05:15:22.378Z,20.80
2022-08-26T05:16:22.461Z,20.79
2022-08-26T05:17:22.352Z,20.82
2022-08-26T05:18:22.709Z,20.82
2022-08-26T05:19:22.333Z,20.82
2022-08-26T05:20:26.129Z,20.83
2022-08-26T05:21:22.340Z,20.83
2022-08-26T05:22:22.314Z,20.86
2022-08-26T05:23:22.303Z,20.86
2022-08-26T05:24:22.292Z,20.88
2022-08-26T05:25:22.306Z,20.89
2022-08-26T05:26:23.209Z,20.89
2022-08-26T05:27:22.255Z,20.92
2022-08-26T05:28:22.247Z,20.93
2022-08-26T05:29:22.239Z,20.95
2022-08-26T05:30:22.227Z,20.97
2022-08-26T05:31:22.265Z,21.00
2022-08-26T05:32:22.237Z,21.04
2022-08-26T05:33:22.196Z,21.04
2022-08-26T05:34:22.189Z,21.05
2022-08-26T05:35:22.168Z,21.05
2022-08-26T05:36:22.199Z,21.07
2022-08-26T05:37:22.149Z,21.08
2022-08-26T05:38:22.149Z,21.10
2022-08-26T05:39:22.130Z,21.10
2022-08-26T05:40:22.146Z,21.11
2022-08-26T05:41:22.140Z,21.13
2022-08-26T05:42:22.107Z,21.14
2022-08-26T05:43:22.091Z,21.19
2022-08-26T05:44:22.364Z,21.19
2022-08-26T05:45:22.074Z,21.23
2022-08-26T05:46:22.139Z,21.28
2022-08-26T05:47:22.044Z,21.29
2022-08-26T05:48:22.853Z,21.30
2022-08-26T05:49:22.504Z,21.34
2022-08-26T05:50:22.024Z,21.35
2022-08-26T05:51:25.884Z,21.37
2022-08-26T05:52:22.004Z,21.40
2022-08-26T05:53:21.992Z,21.43
2022-08-26T05:54:22.568Z,21.45
2022-08-26T05:55:21.976Z,21.47
2022-08-26T05:56:21.986Z,21.51
2022-08-26T05:57:23.242Z,21.55
2022-08-26T05:58:21.940Z,21.58
2022-08-26T05:59:24.588Z,21.58
2022-08-26T06:00:21.920Z,21.59
2022-08-26T06:01:21.970Z,21.59
2022-08-26T06:02:21.930Z,21.60
2022-08-26T06:03:21.888Z,21.62
2022-08-26T06:04:21.880Z,21.66
2022-08-26T06:05:21.861Z,21.67
2022-08-26T06:06:27.208Z,21.73
2022-08-26T06:07:22.843Z,21.74
2022-08-26T06:08:21.841Z,21.77
2022-08-26T06:09:21.823Z,21.78
2022-08-26T06:10:32.130Z,21.82
2022-08-26T06:11:22.833Z,21.88
2022-08-26T06:12:21.802Z,21.91
2022-08-26T06:13:21.785Z,21.97
2022-08-26T06:14:21.777Z,21.98
2022-08-26T06:15:21.775Z,22.01
2022-08-26T06:16:21.805Z,22.06
2022-08-26T06:17:21.746Z,22.09
2022-08-26T06:18:21.744Z,22.13
2022-08-26T06:19:22.144Z,22.18
2022-08-26T06:20:21.746Z,22.19
2022-08-26T06:21:21.727Z,22.25
2022-08-26T06:22:23.526Z,22.27
2022-08-26T06:23:21.679Z,22.30
2022-08-26T06:24:21.741Z,22.34
2022-08-26T06:25:22.670Z,22.38
2022-08-26T06:26:21.683Z,22.41
2022-08-26T06:27:21.650Z,22.44
2022-08-26T06:28:21.641Z,22.49
2022-08-26T06:29:24.526Z,22.51
2022-08-26T06:30:21.620Z,22.48
2022-08-26T06:31:21.698Z,22.49
2022-08-26T06:32:21.592Z,22.49
2022-08-26T06:33:21.601Z,22.49
2022-08-26T06:34:21.573Z,22.49
2022-08-26T06:35:21.560Z,22.49
2022-08-26T06:36:21.595Z,22.48
2022-08-26T06:37:21.545Z,22.49
2022-08-26T06:38:21.542Z,22.51
2022-08-26T06:39:21.524Z,22.52
2022-08-26T06:40:21.570Z,22.55
2022-08-26T06:41:21.536Z,22.58
2022-08-26T06:42:21.497Z,22.64
2022-08-26T06:43:21.476Z,22.67
2022-08-26T06:44:21.479Z,22.70
2022-08-26T06:45:21.467Z,22.71
2022-08-26T06:46:21.550Z,22.74
2022-08-26T06:47:21.438Z,22.77
2022-08-26T06:48:21.450Z,22.80
2022-08-26T06:49:25.739Z,22.83
2022-08-26T06:50:22.423Z,22.86
2022-08-26T06:51:22.370Z,22.89
2022-08-26T06:52:24.628Z,22.93
2022-08-26T06:53:21.371Z,22.95
2022-08-26T06:54:21.385Z,22.99
2022-08-26T06:55:21.361Z,23.03
2022-08-26T06:56:22.375Z,23.07
2022-08-26T06:57:21.342Z,23.10
2022-08-26T06:58:21.333Z,23.14
2022-08-26T06:59:21.314Z,23.18
2022-08-26T07:00:21.313Z,23.23
2022-08-26T07:01:21.398Z,23.29
2022-08-26T07:02:21.327Z,23.33
2022-08-26T07:03:21.274Z,23.39
2022-08-26T07:04:21.916Z,23.45
2022-08-26T07:05:21.255Z,23.49
2022-08-26T07:06:21.295Z,23.55
2022-08-26T07:07:22.001Z,23.60
2022-08-26T07:08:21.228Z,23.66
2022-08-26T07:09:21.281Z,23.69
2022-08-26T07:10:22.244Z,23.73
2022-08-26T07:11:21.218Z,23.78
2022-08-26T07:12:21.193Z,23.82
2022-08-26T07:13:30.514Z,23.85
2022-08-26T07:14:22.181Z,23.89
2022-08-26T07:15:23.893Z,23.94
2022-08-26T07:16:22.193Z,23.98
2022-08-26T07:17:21.130Z,24.03
2022-08-26T07:18:21.782Z,24.06
2022-08-26T07:19:21.164Z,24.11
2022-08-26T07:20:22.161Z,24.13
2022-08-26T07:21:21.114Z,24.18
2022-08-26T07:22:21.084Z,24.22
2022-08-26T07:23:21.073Z,24.26
2022-08-26T07:24:21.064Z,24.31
2022-08-26T07:25:21.054Z,24.34
2022-08-26T07:26:21.074Z,24.37
2022-08-26T07:27:21.053Z,24.41
2022-08-26T07:28:21.061Z,24.44
2022-08-26T07:29:21.007Z,24.48
2022-08-26T07:30:21.006Z,24.56
2022-08-26T07:31:21.038Z,24.59
2022-08-26T07:32:20.987Z,24.63
2022-08-26T07:33:20.972Z,24.70
2022-08-26T07:34:20.959Z,24.74
2022-08-26T07:35:20.948Z,24.79
2022-08-26T07:36:20.968Z,24.82
2022-08-26T07:37:20.929Z,24.89
2022-08-26T07:38:20.942Z,24.94
2022-08-26T07:39:20.921Z,24.97
2022-08-26T07:40:20.938Z,25.01
2022-08-26T07:41:20.953Z,25.06
2022-08-26T07:42:20.882Z,25.11
2022-08-26T07:43:20.872Z,25.15
2022-08-26T07:44:20.864Z,25.19
2022-08-26T07:45:20.853Z,25.26
2022-08-26T07:46:29.905Z,25.30
2022-08-26T07:47:25.859Z,25.30
2022-08-26T07:48:21.444Z,25.30
2022-08-26T07:49:20.920Z,25.30
2022-08-26T07:50:20.899Z,25.27
2022-08-26T07:51:21.788Z,25.27
2022-08-26T07:52:25.998Z,25.26
2022-08-26T07:53:21.767Z,25.21
2022-08-26T07:54:20.757Z,25.21
2022-08-26T07:55:21.756Z,25.22
2022-08-26T07:56:20.748Z,25.26
2022-08-26T07:57:20.748Z,25.26
2022-08-26T07:58:20.719Z,25.30
2022-08-26T07:59:20.717Z,25.34
2022-08-26T08:00:20.766Z,25.38
2022-08-26T08:01:20.769Z,25.43
2022-08-26T08:02:20.704Z,25.53
2022-08-26T08:03:20.667Z,25.63
2022-08-26T08:04:26.240Z,25.70
2022-08-26T08:05:21.786Z,25.81
2022-08-26T08:06:20.643Z,25.90
2022-08-26T08:07:20.652Z,26.01
2022-08-26T08:08:27.771Z,26.08
2022-08-26T08:09:22.379Z,26.19
2022-08-26T08:10:20.826Z,26.24
2022-08-26T08:11:20.624Z,26.24
2022-08-26T08:12:20.636Z,26.23
2022-08-26T08:13:20.566Z,26.24
2022-08-26T08:14:22.225Z,26.23
2022-08-26T08:15:20.547Z,26.19
2022-08-26T08:16:20.583Z,26.12
2022-08-26T08:17:20.547Z,26.07
2022-08-26T08:18:20.764Z,26.05
2022-08-26T08:19:20.509Z,26.04
2022-08-26T08:20:20.509Z,26.03
2022-08-26T08:21:21.628Z,26.03
2022-08-26T08:22:20.511Z,26.03
2022-08-26T08:23:20.469Z,26.04
2022-08-26T08:24:20.461Z,26.01
2022-08-26T08:25:20.452Z,26.05
2022-08-26T08:26:20.468Z,26.11
2022-08-26T08:27:23.793Z,26.21
2022-08-26T08:28:20.427Z,26.31
2022-08-26T08:29:20.411Z,26.42
2022-08-26T08:30:22.686Z,26.51
2022-08-26T08:31:38.777Z,26.56
2022-08-26T08:32:21.391Z,26.58
2022-08-26T08:33:20.363Z,26.64
2022-08-26T08:34:21.618Z,26.73
2022-08-26T08:35:20.354Z,26.79
2022-08-26T08:36:20.535Z,26.85
2022-08-26T08:37:20.326Z,26.83
2022-08-26T08:38:20.322Z,26.90
2022-08-26T08:39:20.311Z,26.97
2022-08-26T08:40:20.482Z,27.05
2022-08-26T08:41:20.317Z,27.22
2022-08-26T08:42:20.288Z,27.30
2022-08-26T08:43:20.269Z,27.44
2022-08-26T08:44:20.347Z,27.66
2022-08-26T08:45:20.252Z,27.87
2022-08-26T08:46:20.328Z,28.05
2022-08-26T08:47:20.754Z,28.22
2022-08-26T08:48:20.263Z,28.44
2022-08-26T08:49:20.210Z,28.61
2022-08-26T08:50:20.214Z,28.72
2022-08-26T08:51:20.184Z,28.91
2022-08-26T08:52:20.253Z,29.04
2022-08-26T08:53:20.174Z,29.13
2022-08-26T08:54:21.989Z,29.27
2022-08-26T08:55:20.154Z,29.37
2022-08-26T08:56:20.212Z,29.47
2022-08-26T08:57:20.156Z,29.49
2022-08-26T08:58:20.125Z,29.54
2022-08-26T08:59:20.117Z,29.62
2022-08-26T09:00:20.106Z,29.66
2022-08-26T09:01:21.164Z,29.78
2022-08-26T09:02:20.188Z,29.81
2022-08-26T09:03:20.079Z,29.83
2022-08-26T09:04:20.060Z,29.78
2022-08-26T09:05:20.070Z,29.77
2022-08-26T09:06:20.077Z,29.68
2022-08-26T09:07:20.070Z,29.70
2022-08-26T09:08:20.117Z,29.70
2022-08-26T09:09:20.024Z,29.73
2022-08-26T09:10:20.012Z,29.77
2022-08-26T09:11:20.027Z,29.74
2022-08-26T09:12:20.011Z,29.73
2022-08-26T09:13:25.234Z,29.74
2022-08-26T09:14:20.965Z,29.83
2022-08-26T09:15:19.963Z,29.95
2022-08-26T09:16:20.258Z,30.13
2022-08-26T09:17:19.976Z,30.28
2022-08-26T09:18:19.955Z,30.39
2022-08-26T09:19:19.926Z,30.52
2022-08-26T09:20:19.926Z,30.55
2022-08-26T09:21:19.913Z,30.59
2022-08-26T09:22:19.919Z,30.59
2022-08-26T09:23:19.889Z,30.67
2022-08-26T09:24:19.889Z,30.75
2022-08-26T09:25:19.901Z,30.80
2022-08-26T09:26:19.859Z,30.89
2022-08-26T09:27:19.907Z,30.99
2022-08-26T09:28:19.853Z,31.10
2022-08-26T09:30:19.831Z,31.26
2022-08-26T09:31:19.835Z,31.37
2022-08-26T09:32:21.090Z,31.44
2022-08-26T09:33:19.832Z,31.56
2022-08-26T09:34:19.786Z,31.60
2022-08-26T09:35:19.775Z,31.57
2022-08-26T09:36:19.775Z,31.52
2022-08-26T09:37:19.778Z,31.52
2022-08-26T09:38:19.746Z,31.52
2022-08-26T09:39:19.747Z,31.59
2022-08-26T09:40:20.379Z,31.67
2022-08-26T09:41:19.720Z,31.75
2022-08-26T09:42:19.747Z,31.86
2022-08-26T09:43:22.821Z,31.98
2022-08-26T09:44:19.691Z,32.08
2022-08-26T09:45:19.693Z,32.19
2022-08-26T09:46:19.825Z,32.26
2022-08-26T09:47:19.690Z,32.33
2022-08-26T09:48:19.651Z,32.39
2022-08-26T09:49:19.649Z,32.39
2022-08-26T09:50:19.630Z,32.46
2022-08-26T09:51:19.641Z,32.57
2022-08-26T09:52:19.643Z,32.64
2022-08-26T09:53:21.045Z,32.73
2022-08-26T09:54:20.753Z,32.82
2022-08-26T09:55:19.592Z,32.92
2022-08-26T09:56:19.604Z,32.99
2022-08-26T09:57:19.572Z,33.07
2022-08-26T09:58:19.562Z,33.14
2022-08-26T09:59:19.557Z,33.20
2022-08-26T10:00:19.547Z,33.26
2022-08-26T10:01:19.644Z,33.32
2022-08-26T10:02:19.545Z,33.39
2022-08-26T10:03:19.531Z,33.47
2022-08-26T10:04:19.534Z,33.57
2022-08-26T10:05:20.046Z,33.67
2022-08-26T10:06:21.008Z,33.73
2022-08-26T10:07:19.481Z,33.79
2022-08-26T10:08:19.470Z,33.85
2022-08-26T10:09:19.472Z,33.93
2022-08-26T10:10:19.452Z,34.00
2022-08-26T10:11:19.452Z,34.06
2022-08-26T10:12:19.454Z,34.11
2022-08-26T10:13:19.423Z,34.01
2022-08-26T10:14:20.281Z,33.92
2022-08-26T10:15:19.411Z,33.81
2022-08-26T10:16:19.415Z,33.76
2022-08-26T10:17:19.414Z,33.73
2022-08-26T10:18:19.395Z,33.67
2022-08-26T10:19:19.375Z,33.57
2022-08-26T10:20:23.169Z,33.47
2022-08-26T10:21:19.357Z,33.29
2022-08-26T10:22:19.367Z,33.17
2022-08-26T10:23:19.340Z,33.20
2022-08-26T10:24:19.326Z,33.20
2022-08-26T10:25:19.324Z,33.24
2022-08-26T10:26:19.305Z,33.30
2022-08-26T10:27:19.320Z,33.47
2022-08-26T10:28:19.293Z,33.60
2022-08-26T10:29:19.281Z,33.69
2022-08-26T10:30:19.271Z,33.76
2022-08-26T10:31:19.964Z,33.85
2022-08-26T10:32:19.397Z,33.95
2022-08-26T10:33:19.252Z,34.04
2022-08-26T10:34:19.240Z,34.10
2022-08-26T10:35:19.233Z,34.18
2022-08-26T10:36:20.289Z,34.20
2022-08-26T10:37:19.243Z,34.18
2022-08-26T10:38:19.195Z,34.10
2022-08-26T10:39:19.197Z,34.07
2022-08-26T10:40:19.223Z,34.08
2022-08-26T10:41:19.179Z,34.07
2022-08-26T10:42:19.188Z,34.13
2022-08-26T10:43:19.155Z,34.20
2022-08-26T10:44:19.147Z,34.26
2022-08-26T10:45:19.136Z,34.30
2022-08-26T10:46:19.155Z,34.37
2022-08-26T10:47:19.139Z,34.45
2022-08-26T10:48:19.108Z,34.52
2022-08-26T10:49:19.100Z,34.57
2022-08-26T10:50:19.082Z,34.60
2022-08-26T10:51:19.081Z,34.64
2022-08-26T10:52:19.091Z,34.67
2022-08-26T10:53:19.072Z,34.67
2022-08-26T10:54:20.063Z,34.73
2022-08-26T10:55:19.072Z,34.76
2022-08-26T10:56:19.433Z,34.76
2022-08-26T10:57:19.073Z,34.76
2022-08-26T10:58:26.428Z,34.80
2022-08-26T10:59:20.015Z,34.80
2022-08-26T11:00:19.011Z,34.82
2022-08-26T11:01:22.992Z,34.83
2022-08-26T11:02:24.185Z,34.87
2022-08-26T11:03:22.495Z,34.86
2022-08-26T11:04:19.021Z,34.90
2022-08-26T11:05:18.956Z,34.95
2022-08-26T11:06:18.944Z,34.99
2022-08-26T11:07:18.959Z,34.94
2022-08-26T11:08:18.930Z,34.91
2022-08-26T11:09:18.920Z,34.90
2022-08-26T11:10:19.945Z,34.92
2022-08-26T11:11:18.901Z,34.91
2022-08-26T11:12:18.911Z,34.91
2022-08-26T11:13:18.881Z,34.94
2022-08-26T11:14:18.871Z,34.97
2022-08-26T11:15:19.866Z,35.01
2022-08-26T11:16:19.882Z,34.99
2022-08-26T11:17:18.873Z,34.98
2022-08-26T11:18:18.834Z,34.99
2022-08-26T11:19:18.834Z,34.95
2022-08-26T11:20:19.823Z,34.92
2022-08-26T11:21:18.822Z,34.92
2022-08-26T11:22:19.853Z,34.95
2022-08-26T11:23:18.795Z,34.97
2022-08-26T11:24:18.797Z,34.98
2022-08-26T11:25:18.777Z,35.04
2022-08-26T11:26:35.422Z,35.02
2022-08-26T11:27:19.787Z,35.04
2022-08-26T11:28:18.749Z,35.05
2022-08-26T11:29:18.739Z,35.07
2022-08-26T11:30:18.740Z,35.12
2022-08-26T11:31:18.847Z,35.10
2022-08-26T11:32:18.747Z,35.10
2022-08-26T11:33:18.718Z,35.13
2022-08-26T11:34:18.703Z,35.13
2022-08-26T11:35:18.693Z,35.14
2022-08-26T11:36:18.679Z,35.14
2022-08-26T11:38:18.673Z,35.12
2022-08-26T11:39:18.653Z,35.10
2022-08-26T11:40:18.695Z,35.12
2022-08-26T11:41:18.653Z,35.20
2022-08-26T11:42:20.184Z,35.24
2022-08-26T11:43:18.627Z,35.29
2022-08-26T11:44:18.617Z,35.17
2022-08-26T11:45:18.605Z,34.90
2022-08-26T11:46:18.654Z,34.94
2022-08-26T11:47:18.706Z,34.95
2022-08-26T11:48:18.570Z,34.92
2022-08-26T11:49:18.579Z,34.87
2022-08-26T11:50:18.575Z,34.86
2022-08-26T11:51:18.556Z,34.79
2022-08-26T11:52:18.565Z,34.64
2022-08-26T11:53:18.531Z,34.45
2022-08-26T11:54:30.540Z,34.37
2022-08-26T11:55:19.523Z,34.29
2022-08-26T11:56:18.501Z,34.11
2022-08-26T11:57:18.519Z,34.10
2022-08-26T11:58:18.482Z,34.07
2022-08-26T11:59:18.494Z,34.04
2022-08-26T12:00:22.190Z,34.01
2022-08-26T12:01:18.461Z,33.98
2022-08-26T12:02:18.473Z,33.93
2022-08-26T12:03:18.581Z,33.84
2022-08-26T12:04:18.486Z,33.81
2022-08-26T12:05:18.428Z,33.82
2022-08-26T12:06:18.438Z,33.78
2022-08-26T12:07:24.207Z,33.73
2022-08-26T12:08:19.433Z,33.67
2022-08-26T12:09:18.398Z,33.62
2022-08-26T12:10:18.377Z,33.55
2022-08-26T12:11:18.377Z,33.48
2022-08-26T12:12:18.379Z,33.41
2022-08-26T12:13:18.350Z,33.35
2022-08-26T12:14:18.338Z,33.26
2022-08-26T12:15:18.330Z,33.17
2022-08-26T12:16:18.364Z,33.07
2022-08-26T12:17:18.340Z,32.97
2022-08-26T12:18:18.304Z,32.87
2022-08-26T12:19:19.302Z,32.79
2022-08-26T12:20:18.284Z,32.64
2022-08-26T12:21:18.282Z,32.55
2022-08-26T12:22:18.264Z,32.45
2022-08-26T12:23:18.283Z,32.33
2022-08-26T12:24:18.244Z,32.26
2022-08-26T12:25:18.247Z,32.20
2022-08-26T12:26:18.225Z,32.09
2022-08-26T12:27:18.229Z,32.01
2022-08-26T12:28:18.227Z,31.89
2022-08-26T12:29:26.456Z,31.78
2022-08-26T12:30:19.386Z,31.71
2022-08-26T12:31:18.250Z,31.68
2022-08-26T12:32:18.181Z,31.63
2022-08-26T12:33:22.950Z,31.61
2022-08-26T12:34:19.151Z,31.61
2022-08-26T12:35:18.150Z,31.63
2022-08-26T12:36:18.161Z,31.61
2022-08-26T12:37:18.867Z,31.63
2022-08-26T12:38:18.142Z,31.66
2022-08-26T12:39:18.111Z,31.67
2022-08-26T12:40:18.172Z,31.67
2022-08-26T12:41:18.093Z,31.66
2022-08-26T12:42:18.082Z,31.67
2022-08-26T12:43:18.094Z,31.67
2022-08-26T12:44:18.054Z,31.67
2022-08-26T12:45:18.065Z,31.67
2022-08-26T12:46:18.044Z,31.64
2022-08-26T12:47:23.338Z,31.64
2022-08-26T12:48:19.037Z,31.64
2022-08-26T12:49:19.019Z,31.66
2022-08-26T12:50:18.019Z,31.67
2022-08-26T12:51:18.016Z,31.68
2022-08-26T12:52:17.982Z,31.68
2022-08-26T12:53:18.000Z,31.70
2022-08-26T12:54:17.970Z,31.67